OIMB  Birjand  Airport

Birjand, Iran

Add Bookmark
ICAO OIMB
Type Airport
Status Operational
Latitude
32° 53' 53" N
32.898102
Longitude
59° 15' 57" E
59.266102
Local (DST + 5) UTC (GMT + 4)
Jul 29, 2015 11:20 Jul 29, 2015 06:50
Sunrise-Sunset Local UTC
Begin Civil Twilight 05:15 00:45
Sunrise 05:43 01:13
Sunset 07:35 15:05
End Civil Twilight 08:02 15:32
VFR
VFR
MVFR
MVFR
IFR
IFR
LIFR
LIFR
Unknown
Unavailable

Current Weather

METAR Observed VFR
OIMB 290600Z 07012KT CAVOK 29/M01 Q1013 Wed, Jul 29, 2015 @ 06:00 UTC
(50 Minutes ago)
Visual Flight Rules
Wind Visibility Conditions
070° at 12 knots (22 kph) 10 km or more
  • No significant weather
Temperatures Readings Precipitation
Current Temp
29°C
84°F
Dewpoint
-1°C
30°F
Humidity 14%
Altimeter 29.91" Hg
Sea Level Pressure 1,013 mb
Field Elevation
1,491 m
4,892 ft
None Recorded
-
-

CheckWX.com is intended as a tool to help pilots better visualize weather data. It is not intended as a substitute for an official weather briefing obtained from a Flight Service Station. CheckWX.com does not meet the FAA requirements for an official pre-flight weather briefing. Therefore, it's important that pilots still call and obtain an official FSS pre-flight weather briefing.

© 2007-2015 CheckWX.com
06:50:15 UTC